Time;durP1;ratioP1;P1;durP2;ratioP2;P2;SDS_P1;SDS_P2;PMS_P1;PMS_P2;Temp;Humidity;BMP_temperature;BMP_pressure;BME280_temperature;BME280_humidity;BME280_pressure;Samples;Min_cycle;Max_cycle;Signal;HPM_P1;HPM_P2
2022/06/18 00:04:10;;;;;;;7.78;4.03;;;;;;;17.45;77.94;101636.66;10445951;28;20080;-78
2022/06/18 00:09:11;;;;;;;7.40;3.55;;;;;;;17.39;78.26;101641.75;10451786;28;20048;-79
2022/06/18 00:14:12;;;;;;;5.57;3.95;;;;;;;17.32;78.83;101638.91;10470151;28;20443;-79
2022/06/18 00:19:12;;;;;;;6.47;3.80;;;;;;;17.26;79.44;101643.13;10469873;28;20047;-78
2022/06/18 00:24:15;;;;;;;7.07;3.40;;;;;;;17.21;79.60;101644.72;10485887;28;20043;-78
2022/06/18 00:29:17;;;;;;;5.38;3.35;;;;;;;17.19;80.27;101641.13;10450514;28;20145;-79
2022/06/18 00:34:18;;;;;;;6.50;4.00;;;;;;;17.25;79.47;101636.91;10451499;28;20040;-78
2022/06/18 00:39:18;;;;;;;7.10;3.30;;;;;;;17.28;79.40;101634.34;10485983;28;20492;-78
2022/06/18 00:44:32;;;;;;;5.78;4.03;;;;;;;17.29;79.12;101628.22;10452003;28;20056;-79
2022/06/18 00:49:49;;;;;;;5.70;3.72;;;;;;;17.35;78.60;101627.53;10485787;28;20040;-78
2022/06/18 00:54:55;;;;;;;8.68;4.30;;;;;;;17.41;78.22;101626.81;10468908;28;20051;-79
2022/06/18 01:00:03;;;;;;;7.63;3.13;;;;;;;17.46;78.65;101614.63;10467128;28;20066;-79
2022/06/18 01:05:14;;;;;;;5.88;3.95;;;;;;;17.48;78.68;101615.56;10451405;28;20053;-79
2022/06/18 01:10:18;;;;;;;9.65;5.05;;;;;;;17.31;79.37;101607.13;10484615;28;20036;-79
2022/06/18 01:15:21;;;;;;;5.75;3.75;;;;;;;17.23;79.08;101617.44;10468762;28;20047;-79
2022/06/18 01:20:23;;;;;;;4.43;2.90;;;;;;;17.20;79.22;101612.06;10467198;28;20044;-79
2022/06/18 01:25:24;;;;;;;7.10;4.22;;;;;;;17.27;78.73;101606.09;10466486;28;20044;-80
2022/06/18 01:30:27;;;;;;;5.03;3.28;;;;;;;17.36;77.49;101596.66;10466792;28;20032;-79
2022/06/18 01:35:28;;;;;;;8.73;5.63;;;;;;;17.34;77.76;101588.69;10450856;28;20048;-80
2022/06/18 01:40:42;;;;;;;7.25;3.35;;;;;;;17.34;77.19;101591.34;10483057;28;20451;-80
2022/06/18 01:45:43;;;;;;;5.18;3.30;;;;;;;17.30;77.52;101592.09;10468126;28;20033;-80
2022/06/18 01:51:18;;;;;;;7.60;3.77;;;;;;;17.25;78.12;101588.41;10448992;28;20055;-80
2022/06/18 01:56:21;;;;;;;5.88;3.33;;;;;;;17.23;77.63;101582.16;10479345;28;20040;-79
2022/06/18 02:01:24;;;;;;;7.45;3.38;;;;;;;17.17;77.91;101586.41;10449382;28;20097;-79
2022/06/18 02:06:25;;;;;;;7.72;4.55;;;;;;;17.11;77.74;101583.56;10447686;28;20070;-79
2022/06/18 02:11:25;;;;;;;4.45;3.08;;;;;;;17.10;77.89;101592.34;10449731;28;20515;-79
2022/06/18 02:16:26;;;;;;;6.28;4.05;;;;;;;17.08;77.95;101590.50;10483770;28;20039;-79
2022/06/18 02:21:27;;;;;;;7.80;3.20;;;;;;;16.98;78.23;101592.84;10447774;28;20068;-79
2022/06/18 02:26:28;;;;;;;4.80;3.90;;;;;;;16.97;78.79;101582.22;10449593;28;20115;-79
2022/06/18 02:31:33;;;;;;;4.07;2.65;;;;;;;16.91;78.89;101582.00;10431447;28;20372;-79
2022/06/18 02:36:35;;;;;;;4.47;2.75;;;;;;;16.81;79.08;101584.34;10464525;28;20480;-79
2022/06/18 02:41:37;;;;;;;8.05;4.05;;;;;;;16.80;78.91;101593.09;10447650;28;20518;-79
2022/06/18 02:46:38;;;;;;;4.97;2.83;;;;;;;16.69;79.20;101592.72;10447803;28;20037;-79
2022/06/18 02:51:39;;;;;;;5.50;3.67;;;;;;;16.54;79.65;101594.84;10445808;28;20119;-78
2022/06/18 02:56:39;;;;;;;5.03;3.13;;;;;;;16.49;80.10;101596.44;10464211;28;20055;-79
2022/06/18 03:01:40;;;;;;;4.72;2.90;;;;;;;16.46;80.59;101589.31;10488168;28;20041;-80
2022/06/18 03:06:40;;;;;;;5.60;3.22;;;;;;;16.46;80.61;101596.31;10471890;28;20044;-80
2022/06/18 03:17:00;;;;;;;5.32;3.85;;;;;;;16.52;80.82;101602.75;10462226;28;20040;-79
2022/06/18 03:22:16;;;;;;;4.20;3.33;;;;;;;16.50;80.62;101606.16;10465195;28;20476;-80
2022/06/18 03:27:17;;;;;;;5.43;3.45;;;;;;;16.53;81.17;101603.63;10455522;28;20086;-80
2022/06/18 03:32:17;;;;;;;5.68;3.85;;;;;;;16.46;82.38;101604.25;10470677;28;20507;-80
2022/06/18 03:37:18;;;;;;;6.75;4.25;;;;;;;16.43;81.82;101605.94;10454382;28;20139;-80
2022/06/18 03:42:18;;;;;;;6.35;3.33;;;;;;;16.48;81.99;101597.28;10489028;28;20119;-80
2022/06/18 03:47:19;;;;;;;7.28;3.97;;;;;;;16.54;81.70;101605.41;10488580;28;20047;-80
2022/06/18 03:52:19;;;;;;;6.97;3.80;;;;;;;16.57;81.21;101590.59;10470859;28;20162;-79
2022/06/18 03:57:20;;;;;;;10.05;6.70;;;;;;;16.60;81.25;101600.34;10486373;28;20428;-77
2022/06/18 04:02:20;;;;;;;15.88;11.88;;;;;;;16.78;80.56;101593.88;10469558;28;20042;-78
2022/06/18 04:07:22;;;;;;;8.82;6.65;;;;;;;16.90;80.40;101590.78;10453274;28;20111;-78
2022/06/18 04:12:23;;;;;;;6.45;3.42;;;;;;;16.98;80.32;101584.91;10453077;28;20036;-78
2022/06/18 04:17:23;;;;;;;5.38;3.17;;;;;;;17.16;79.73;101579.34;10469210;28;20537;-78
2022/06/18 04:22:24;;;;;;;10.55;4.20;;;;;;;17.39;77.90;101581.81;10488170;28;20128;-78
2022/06/18 04:27:24;;;;;;;6.60;3.25;;;;;;;17.56;78.01;101584.06;10468944;28;20056;-78
2022/06/18 04:32:25;;;;;;;6.05;3.38;;;;;;;17.71;78.36;101580.97;10445223;28;20123;-78
2022/06/18 04:37:25;;;;;;;4.13;3.15;;;;;;;17.87;78.42;101582.31;10464461;28;20039;-76
2022/06/18 04:42:26;;;;;;;12.70;9.93;;;;;;;18.15;75.98;101576.09;10468819;28;20079;-77
2022/06/18 04:47:26;;;;;;;15.60;11.18;;;;;;;18.57;74.54;101581.59;10467700;28;20044;-77
2022/06/18 04:52:27;;;;;;;9.68;4.28;;;;;;;18.83;75.29;101576.06;10464514;28;20131;-76
2022/06/18 04:57:27;;;;;;;6.25;3.38;;;;;;;19.02;75.20;101573.03;10483065;28;20055;-77
2022/06/18 05:02:29;;;;;;;6.68;4.03;;;;;;;19.19;76.56;101570.78;10402940;28;20034;-77
2022/06/18 05:07:29;;;;;;;4.20;3.53;;;;;;;19.61;75.46;101574.34;10444325;28;20071;-77
2022/06/18 05:12:30;;;;;;;10.37;3.43;;;;;;;20.01;74.44;101570.78;10466119;28;20614;-77
2022/06/18 05:17:32;;;;;;;7.32;3.38;;;;;;;20.25;73.07;101565.06;10386431;28;20041;-77
2022/06/18 05:22:32;;;;;;;5.85;3.85;;;;;;;20.69;70.06;101556.06;10392143;28;20041;-76
2022/06/18 05:27:34;;;;;;;4.87;3.50;;;;;;;21.04;71.88;101558.41;10446518;28;20468;-77
2022/06/18 05:32:36;;;;;;;32.03;5.07;;;;;;;21.63;68.94;101563.72;10465871;28;20561;-77
2022/06/18 05:37:36;;;;;;;6.87;4.10;;;;;;;22.07;66.02;101568.69;10463889;28;20033;-77
2022/06/18 05:42:37;;;;;;;7.20;3.60;;;;;;;22.56;64.66;101554.97;10396786;28;20085;-77
2022/06/18 05:47:37;;;;;;;8.13;3.80;;;;;;;23.08;63.51;101558.03;10389407;28;20045;-76
2022/06/18 05:52:38;;;;;;;6.40;3.23;;;;;;;23.41;63.23;101564.50;10383805;28;20405;-77
2022/06/18 05:57:46;;;;;;;3.97;3.43;;;;;;;24.15;58.45;101555.88;10383153;28;20154;-76
2022/06/18 06:02:47;;;;;;;4.95;3.08;;;;;;;24.40;58.23;101555.94;10409944;28;20523;-76
2022/06/18 06:07:49;;;;;;;4.53;3.23;;;;;;;24.89;57.14;101561.31;10424441;28;20040;-75
2022/06/18 06:12:49;;;;;;;6.50;3.63;;;;;;;25.41;56.09;101551.38;10423513;28;20037;-76
2022/06/18 06:17:50;;;;;;;7.47;3.60;;;;;;;26.21;54.33;101563.59;10442801;28;20072;-77
2022/06/18 06:22:50;;;;;;;9.20;4.53;;;;;;;26.60;49.88;101559.72;10423707;28;20509;-77
2022/06/18 06:27:51;;;;;;;11.20;3.77;;;;;;;26.68;47.96;101564.09;10419339;28;20554;-76
2022/06/18 06:32:52;;;;;;;13.75;3.95;;;;;;;27.00;47.17;101566.53;10424875;28;20057;-75
2022/06/18 06:37:53;;;;;;;;;;;;;;;27.51;48.57;101569.59;10468228;28;20396;-76
2022/06/18 06:42:55;;;;;;;7.87;4.10;;;;;;;27.94;46.23;101578.00;10491171;28;19916;-77
2022/06/18 06:47:56;;;;;;;10.55;4.30;;;;;;;28.07;44.97;101568.84;10471304;28;20037;-77
2022/06/18 06:52:57;;;;;;;6.78;4.55;;;;;;;28.07;45.77;101566.16;10455748;28;20036;-77
2022/06/18 06:57:57;;;;;;;;;;;;;;;28.07;44.82;101574.25;10471805;28;20476;-79
2022/06/18 07:02:57;;;;;;;10.80;4.45;;;;;;;28.21;46.44;101557.94;10471684;28;19917;-79
2022/06/18 07:07:58;;;;;;;9.15;3.92;;;;;;;28.67;45.76;101542.81;10472343;28;20112;-78
2022/06/18 07:12:58;;;;;;;;;;;;;;;29.30;43.47;101545.31;10455739;28;20048;-78
2022/06/18 07:17:59;;;;;;;6.40;3.70;;;;;;;29.63;44.85;101550.94;10471662;28;19920;-78
2022/06/18 07:22:59;;;;;;;7.90;3.83;;;;;;;29.79;43.71;101546.09;10455149;28;20116;-79
2022/06/18 07:28:00;;;;;;;6.35;3.92;;;;;;;29.80;41.35;101544.28;10472467;28;20087;-79
2022/06/18 07:33:00;;;;;;;;;;;;;;;30.40;40.62;101540.19;10489514;28;20178;-79
2022/06/18 07:38:02;;;;;;;8.77;4.93;;;;;;;30.42;40.28;101534.78;10471644;28;19973;-78
2022/06/18 07:43:02;;;;;;;10.20;4.70;;;;;;;30.70;41.67;101534.09;10455781;28;20131;-78
2022/06/18 07:48:03;;;;;;;9.45;4.88;;;;;;;30.82;39.27;101533.75;10453608;28;20043;-79
2022/06/18 07:53:05;;;;;;;7.18;4.40;;;;;;;31.10;40.08;101521.28;10470830;28;20122;-79
2022/06/18 07:58:05;;;;;;;12.05;4.43;;;;;;;31.49;37.96;101530.09;10488567;28;20109;-79
2022/06/18 08:03:06;;;;;;;7.70;4.22;;;;;;;31.74;36.91;101520.38;10488918;28;20070;-78
2022/06/18 08:08:07;;;;;;;10.75;5.03;;;;;;;32.32;35.12;101514.03;10452307;28;20063;-79
2022/06/18 08:13:08;;;;;;;12.25;5.72;;;;;;;32.18;34.77;101519.91;10428941;28;20044;-80
2022/06/18 08:18:08;;;;;;;13.25;4.70;;;;;;;32.52;35.85;101510.66;10429615;28;20075;-80
2022/06/18 08:23:09;;;;;;;9.15;4.75;;;;;;;32.75;36.10;101500.84;10446038;28;20117;-80
2022/06/18 08:28:09;;;;;;;9.20;4.70;;;;;;;32.89;35.27;101494.94;10412180;28;20040;-79
2022/06/18 08:33:10;;;;;;;14.27;5.60;;;;;;;33.03;35.07;101487.19;10444923;28;20052;-80
2022/06/18 08:38:10;;;;;;;10.23;5.40;;;;;;;34.21;33.45;101498.00;10447373;28;20064;-80
2022/06/18 08:43:18;;;;;;;18.17;5.18;;;;;;;33.86;33.50;101493.06;10411973;28;20037;-80
2022/06/18 08:48:44;;;;;;;7.57;3.95;;;;;;;32.88;33.38;101491.34;10444604;28;20043;-81
2022/06/18 08:54:09;;;;;;;10.48;3.70;;;;;;;33.51;35.44;101488.13;10428795;28;20040;-81
2022/06/18 08:59:31;;;;;;;7.40;3.72;;;;;;;33.85;34.42;101472.28;10446051;28;20132;-80
2022/06/18 09:04:39;;;;;;;14.38;5.25;;;;;;;34.27;33.05;101470.59;10446464;28;20041;-80
2022/06/18 09:10:05;;;;;;;6.13;3.40;;;;;;;34.41;32.42;101470.88;10437359;28;20029;-82
2022/06/18 09:15:07;;;;;;;8.02;3.65;;;;;;;34.85;30.35;101475.31;10425534;28;20128;-82
2022/06/18 09:20:11;;;;;;;6.38;3.75;;;;;;;34.84;30.76;101472.66;10443448;28;20381;-81
2022/06/18 09:25:15;;;;;;;11.82;4.43;;;;;;;35.33;28.57;101469.53;10466669;28;20404;-84
2022/06/18 09:30:23;;;;;;;7.15;3.88;;;;;;;35.05;30.98;101476.25;10484621;28;20146;-81
2022/06/18 09:35:34;;;;;;;8.02;4.32;;;;;;;35.41;30.89;101480.91;10451352;28;20082;-83
2022/06/18 09:40:50;;;;;;;9.88;4.20;;;;;;;35.33;31.32;101471.38;10451088;28;20086;-82
2022/06/18 09:45:52;;;;;;;13.98;4.72;;;;;;;35.84;31.71;101464.38;10451363;28;20400;-82
2022/06/18 09:51:04;;;;;;;12.18;4.03;;;;;;;35.79;32.07;101466.44;10450030;28;20450;-82
2022/06/18 09:56:10;;;;;;;14.38;4.20;;;;;;;35.75;30.40;101469.38;10451076;28;20115;-83
2022/06/18 10:01:14;;;;;;;16.50;4.75;;;;;;;35.83;31.92;101468.06;10450365;28;20032;-82
2022/06/18 10:11:37;;;;;;;15.35;4.43;;;;;;;36.91;28.93;101458.00;10453107;28;20480;-82
2022/06/18 10:16:53;;;;;;;10.80;4.00;;;;;;;36.85;28.63;101453.75;10448284;28;20036;-82
2022/06/18 10:22:18;;;;;;;8.63;4.28;;;;;;;36.37;28.17;101448.13;10449928;28;20485;-82
2022/06/18 10:27:39;;;;;;;10.65;4.65;;;;;;;35.94;30.18;101445.72;10441290;28;20423;-82
2022/06/18 10:32:54;;;;;;;10.52;3.67;;;;;;;36.33;28.31;101445.63;10426480;28;20071;-82
2022/06/18 10:38:01;;;;;;;13.57;4.25;;;;;;;36.86;28.10;101435.56;10408068;28;20396;-82
2022/06/18 10:43:33;;;;;;;11.90;4.43;;;;;;;36.98;29.67;101434.94;10424113;28;20048;-82
2022/06/18 10:48:33;;;;;;;12.40;4.30;;;;;;;37.40;27.12;101435.31;10415123;28;20136;-82
2022/06/18 10:53:45;;;;;;;12.57;4.00;;;;;;;37.55;28.64;101429.97;10433993;28;20047;-81
2022/06/18 10:58:51;;;;;;;9.43;4.10;;;;;;;37.52;27.09;101416.50;10465936;28;20392;-81
2022/06/18 11:03:54;;;;;;;12.07;4.43;;;;;;;37.96;28.11;101418.47;10482768;28;20087;-83
2022/06/18 11:08:59;;;;;;;18.25;5.10;;;;;;;38.15;27.97;101414.63;10463962;28;20437;-82
2022/06/18 11:14:18;;;;;;;15.35;5.22;;;;;;;38.41;27.61;101401.25;10465410;28;20083;-82
2022/06/18 11:19:26;;;;;;;8.45;3.15;;;;;;;38.41;27.35;101404.88;10465130;28;20071;-82
2022/06/18 11:24:33;;;;;;;14.55;4.22;;;;;;;37.94;26.73;101387.63;10429112;28;20029;-83
2022/06/18 11:29:48;;;;;;;13.93;4.80;;;;;;;38.25;28.13;101387.63;10428439;28;20493;-83
2022/06/18 11:34:50;;;;;;;14.88;5.82;;;;;;;37.78;26.51;101374.00;10431402;28;20435;-83
2022/06/18 11:39:55;;;;;;;10.65;4.07;;;;;;;37.78;27.13;101367.66;10471442;28;20400;-81
2022/06/18 11:45:30;;;;;;;9.70;3.75;;;;;;;37.90;26.94;101365.06;10471211;28;20471;-81
2022/06/18 11:50:39;;;;;;;16.20;4.15;;;;;;;38.90;24.63;101357.13;10487903;28;20055;-82
2022/06/18 11:55:43;;;;;;;9.27;4.97;;;;;;;38.36;26.03;101345.94;10439356;28;20049;-81
2022/06/18 12:01:19;;;;;;;11.73;5.22;;;;;;;37.58;26.25;101340.59;10454351;28;20373;-82
2022/06/18 12:06:51;;;;;;;12.95;4.63;;;;;;;38.12;26.40;101330.13;10482339;28;20178;-81
2022/06/18 12:12:23;;;;;;;27.98;22.77;;;;;;;38.26;26.35;101330.13;10485952;28;22063;-82
2022/06/18 12:17:44;;;;;;;9.52;4.18;;;;;;;38.04;26.77;101326.00;10443454;28;20039;-81
2022/06/18 12:23:21;;;;;;;14.40;4.68;;;;;;;37.88;27.40;101325.16;10470379;28;20537;-80
2022/06/18 12:28:37;;;;;;;16.52;5.88;;;;;;;37.98;26.99;101309.13;10465900;28;20047;-81
2022/06/18 12:34:10;;;;;;;16.10;4.43;;;;;;;37.98;27.81;101307.28;10467321;28;20037;-80
2022/06/18 12:39:26;;;;;;;10.13;3.97;;;;;;;37.82;26.80;101303.69;10469846;28;20044;-82
2022/06/18 12:45:04;;;;;;;31.20;18.85;;;;;;;38.63;26.43;101296.88;10460189;28;20044;-81
2022/06/18 12:50:37;;;;;;;11.23;4.57;;;;;;;38.57;25.88;101292.69;10472630;28;20123;-81
2022/06/18 12:55:50;;;;;;;13.98;5.80;;;;;;;37.67;27.37;101283.69;10467189;28;20040;-82
2022/06/18 13:00:53;;;;;;;15.15;4.60;;;;;;;37.59;27.63;101278.66;10466770;28;20055;-82
2022/06/18 13:06:14;;;;;;;18.33;5.93;;;;;;;37.30;27.90;101256.69;10448461;28;20052;-80
2022/06/18 13:11:17;;;;;;;13.95;7.20;;;;;;;37.28;29.25;101250.47;10464548;28;20047;-80
2022/06/18 13:16:24;;;;;;;8.27;4.07;;;;;;;37.65;27.57;101241.94;10483219;28;20501;-81
2022/06/18 13:21:25;;;;;;;13.63;5.93;;;;;;;38.07;26.47;101242.09;10482458;28;20396;-82
2022/06/18 13:32:14;;;;;;;12.77;8.80;;;;;;;37.71;27.42;101223.31;10453838;28;20037;-82
2022/06/18 13:37:37;;;;;;;9.10;4.65;;;;;;;38.23;26.86;101228.38;10464642;28;20048;-81
2022/06/18 13:42:50;;;;;;;16.17;4.65;;;;;;;38.41;26.71;101202.63;10454936;28;20041;-82
2022/06/18 13:47:56;;;;;;;10.18;4.85;;;;;;;38.52;26.61;101206.50;10449978;28;20063;-82
2022/06/18 13:52:57;;;;;;;10.23;4.55;;;;;;;38.00;28.68;101204.25;10455359;28;20407;-80
2022/06/18 13:57:57;;;;;;;7.00;3.75;;;;;;;37.88;27.57;101194.06;10410717;28;20037;-79
2022/06/18 14:03:05;;;;;;;10.73;4.68;;;;;;;37.84;29.08;101187.94;10445710;28;20029;-81
2022/06/18 14:08:06;;;;;;;9.98;4.93;;;;;;;37.80;28.35;101178.19;10409516;28;20041;-80
2022/06/18 14:13:11;;;;;;;10.55;4.85;;;;;;;38.23;29.58;101171.84;10447959;28;20036;-80
2022/06/18 14:18:17;;;;;;;14.13;5.32;;;;;;;37.95;27.41;101156.38;10446349;28;20046;-80
2022/06/18 14:23:32;;;;;;;12.68;4.15;;;;;;;37.66;28.97;101154.47;10466255;28;20110;-82
2022/06/18 14:28:44;;;;;;;9.52;4.75;;;;;;;37.25;29.36;101155.16;10424531;28;20072;-80
2022/06/18 14:34:07;;;;;;;15.38;5.15;;;;;;;36.64;29.74;101147.81;10409477;28;20033;-83
2022/06/18 14:39:29;;;;;;;15.52;5.80;;;;;;;36.38;32.99;101141.97;10463514;28;20040;-80
2022/06/18 14:45:06;;;;;;;12.52;5.13;;;;;;;35.81;31.23;101134.22;10446289;28;20041;-80
2022/06/18 14:50:19;;;;;;;8.05;3.97;;;;;;;35.78;32.41;101132.56;10415686;28;20049;-80
2022/06/18 14:55:33;;;;;;;6.10;3.95;;;;;;;35.85;32.52;101116.75;10466202;28;20614;-79
2022/06/18 15:01:07;;;;;;;9.48;4.40;;;;;;;35.17;34.92;101115.81;10454272;28;20460;-78
2022/06/18 15:06:09;;;;;;;13.55;7.65;;;;;;;34.64;34.33;101104.88;10421393;28;20550;-79
2022/06/18 15:11:13;;;;;;;8.43;4.05;;;;;;;34.61;32.50;101090.53;10447790;28;20473;-79
2022/06/18 15:26:38;;;;;;;7.93;4.05;;;;;;;34.05;36.51;101094.13;10439638;28;20045;-79
2022/06/18 15:31:41;;;;;;;17.55;5.22;;;;;;;33.76;36.30;101088.19;10417213;28;20037;-80
2022/06/18 15:36:42;;;;;;;9.32;5.05;;;;;;;33.44;39.49;101079.72;10495749;28;20556;-80
2022/06/18 15:41:45;;;;;;;8.38;4.68;;;;;;;33.34;36.67;101073.78;10482839;28;20033;-81
2022/06/18 15:46:54;;;;;;;8.57;4.22;;;;;;;33.26;36.20;101073.25;10466521;28;20060;-80
2022/06/18 15:51:55;;;;;;;12.90;4.93;;;;;;;33.27;36.15;101066.00;10441911;28;20087;-80
2022/06/18 15:57:09;;;;;;;10.40;4.13;;;;;;;33.29;35.01;101056.84;10468012;28;20078;-80
2022/06/18 16:02:13;;;;;;;7.95;4.28;;;;;;;33.12;35.16;101048.56;10466609;28;20090;-80
2022/06/18 16:07:14;;;;;;;10.18;4.28;;;;;;;32.99;36.44;101042.84;10450856;28;20485;-80
2022/06/18 16:12:41;;;;;;;8.20;4.60;;;;;;;32.80;35.99;101030.06;10427675;28;20094;-80
2022/06/18 16:17:41;;;;;;;11.30;4.47;;;;;;;32.58;35.68;101022.84;10439985;28;20041;-81
2022/06/18 16:22:42;;;;;;;9.38;4.32;;;;;;;32.45;37.36;101022.47;10426961;28;20387;-82
2022/06/18 16:27:43;;;;;;;;;;;;;;;32.25;38.41;101009.75;10427188;28;20037;-82
2022/06/18 16:32:46;;;;;;;9.73;4.57;;;;;;;32.10;37.63;101005.81;10442367;28;19927;-80
2022/06/18 16:37:48;;;;;;;10.45;6.25;;;;;;;32.17;39.71;101001.94;10425548;28;20037;-82
2022/06/18 16:42:52;;;;;;;14.05;7.28;;;;;;;32.12;40.92;100994.94;10442646;28;20033;-83
2022/06/18 16:47:55;;;;;;;17.55;8.40;;;;;;;31.93;41.43;100983.03;10443081;28;20086;-90
2022/06/18 16:52:56;;;;;;;14.02;6.57;;;;;;;31.68;41.42;100982.22;10442552;28;20082;-84
2022/06/18 16:57:57;;;;;;;19.95;8.75;;;;;;;31.46;43.14;100978.53;10442205;28;20362;-86
2022/06/18 17:02:57;;;;;;;;;;;;;;;31.23;43.11;100973.13;10431021;28;20052;-82
2022/06/18 17:07:58;;;;;;;27.38;10.18;;;;;;;30.88;43.13;100968.03;10442049;28;19925;-84
2022/06/18 17:12:58;;;;;;;15.00;7.23;;;;;;;30.59;43.91;100967.25;10441305;28;20068;-84
2022/06/18 17:17:59;;;;;;;20.83;9.10;;;;;;;30.21;44.86;100970.28;10440036;28;20324;-87
2022/06/18 17:22:59;;;;;;;15.17;7.77;;;;;;;30.00;46.07;100967.38;10423030;28;20368;-83
2022/06/18 17:33:19;;;;;;;16.27;7.35;;;;;;;29.27;48.32;100961.41;10438956;28;20120;-82
2022/06/18 17:38:20;;;;;;;15.10;8.20;;;;;;;28.97;48.01;100963.19;10440249;28;20045;-82
2022/06/18 17:43:21;;;;;;;13.05;8.02;;;;;;;28.70;48.06;100960.28;10437671;28;20052;-81
2022/06/18 17:48:22;;;;;;;31.95;21.55;;;;;;;28.56;49.34;100969.59;10422542;28;20110;-82
2022/06/18 17:53:23;;;;;;;18.30;10.20;;;;;;;28.39;49.86;100956.56;10440163;28;20044;-80
2022/06/18 17:58:24;;;;;;;19.45;7.53;;;;;;;28.33;49.52;100945.09;10439280;28;20481;-80
2022/06/18 18:03:24;;;;;;;20.17;9.27;;;;;;;28.19;50.21;100949.00;10416653;28;20119;-81
2022/06/18 18:08:25;;;;;;;16.77;8.73;;;;;;;27.92;50.80;100945.13;10440172;28;20044;-81
2022/06/18 18:13:25;;;;;;;11.60;7.57;;;;;;;27.68;50.95;100944.78;10439646;28;20041;-80
2022/06/18 18:18:27;;;;;;;19.50;8.50;;;;;;;27.42;51.48;100946.22;10435033;28;20091;-78
2022/06/18 18:23:40;;;;;;;11.75;6.93;;;;;;;27.30;52.03;100942.00;10438578;28;20134;-79
2022/06/18 18:28:44;;;;;;;18.35;13.45;;;;;;;27.08;52.64;100934.38;10427841;28;20508;-79
2022/06/18 18:33:44;;;;;;;33.90;24.60;;;;;;;26.90;52.90;100926.69;10440519;28;20076;-79
2022/06/18 18:38:45;;;;;;;21.27;11.77;;;;;;;26.55;53.66;100923.72;10413787;28;20064;-79
2022/06/18 18:43:45;;;;;;;12.90;7.87;;;;;;;26.55;54.14;100914.78;10435441;28;20116;-82
2022/06/18 18:48:46;;;;;;;17.40;8.33;;;;;;;26.35;55.41;100911.53;10415732;28;20123;-78
2022/06/18 18:53:48;;;;;;;16.07;8.33;;;;;;;26.15;56.68;100908.31;10441414;28;20495;-77
2022/06/18 18:58:49;;;;;;;15.45;9.45;;;;;;;25.91;58.24;100902.41;10440083;28;20037;-77
2022/06/18 19:03:50;;;;;;;18.83;8.63;;;;;;;25.72;59.37;100896.44;10421325;28;20481;-78
2022/06/18 19:08:51;;;;;;;10.25;7.07;;;;;;;25.50;59.61;100878.88;10442150;28;20048;-77
2022/06/18 19:13:51;;;;;;;12.07;8.23;;;;;;;25.39;60.36;100869.19;10463859;28;20123;-78
2022/06/18 19:18:52;;;;;;;16.60;9.70;;;;;;;25.19;61.25;100871.22;10480404;28;20033;-77
2022/06/18 19:23:53;;;;;;;19.03;7.77;;;;;;;25.02;61.06;100865.19;10464003;28;20124;-78
2022/06/18 19:28:56;;;;;;;11.70;6.60;;;;;;;24.81;61.82;100864.56;10482695;28;20048;-78
2022/06/18 19:33:57;;;;;;;10.95;8.20;;;;;;;24.66;62.68;100859.34;10446793;28;20048;-78
2022/06/18 19:38:57;;;;;;;11.00;6.37;;;;;;;24.48;63.38;100866.66;10464319;28;20036;-78
2022/06/18 19:44:00;;;;;;;16.73;7.73;;;;;;;24.24;63.63;100862.44;10485689;28;20549;-77
2022/06/18 19:49:02;;;;;;;15.55;8.05;;;;;;;24.13;64.16;100862.53;10487265;28;20064;-78
2022/06/18 19:54:03;;;;;;;9.68;7.22;;;;;;;23.96;64.60;100852.84;10454871;28;20041;-78
2022/06/18 19:59:05;;;;;;;13.57;7.97;;;;;;;23.74;65.27;100850.34;10470412;28;20119;-78
2022/06/18 20:04:05;;;;;;;10.85;6.43;;;;;;;23.64;65.53;100851.28;10485557;28;20040;-79
2022/06/18 20:09:06;;;;;;;12.37;7.97;;;;;;;23.39;66.29;100843.44;10487517;28;20451;-79
2022/06/18 20:14:07;;;;;;;9.40;7.00;;;;;;;23.17;67.09;100848.88;10474510;28;20037;-79
2022/06/18 20:19:07;;;;;;;9.63;8.67;;;;;;;22.97;67.61;100848.06;10469518;28;20472;-78
2022/06/18 20:24:10;;;;;;;17.23;8.63;;;;;;;22.88;68.06;100839.19;10462527;28;20036;-79
2022/06/18 20:29:12;;;;;;;15.05;7.78;;;;;;;22.72;68.49;100827.72;10452703;28;20040;-79
2022/06/18 20:34:13;;;;;;;15.35;8.27;;;;;;;22.62;68.99;100819.72;10472835;28;20516;-80
2022/06/18 20:39:14;;;;;;;13.93;7.95;;;;;;;22.54;69.43;100809.09;10426574;28;20065;-79
2022/06/18 20:44:14;;;;;;;9.73;7.10;;;;;;;22.33;70.49;100791.34;10453090;28;20571;-79
2022/06/18 20:49:15;;;;;;;11.67;7.57;;;;;;;22.24;70.99;100779.81;10405531;28;20131;-80
2022/06/18 20:59:40;;;;;;;16.65;9.15;;;;;;;22.08;71.69;100775.38;10470417;28;20041;-79
2022/06/18 21:04:40;;;;;;;14.25;8.38;;;;;;;21.92;72.26;100769.22;10425903;28;20140;-79
2022/06/18 21:09:41;;;;;;;11.23;7.28;;;;;;;21.84;72.07;100777.19;10466546;28;20504;-79
2022/06/18 21:14:43;;;;;;;11.77;8.90;;;;;;;21.68;72.57;100768.31;10451756;28;20044;-78
2022/06/18 21:19:45;;;;;;;15.88;8.45;;;;;;;21.47;74.09;100753.19;10440430;28;20415;-79
2022/06/18 21:24:45;;;;;;;;;;;;;;;21.33;74.81;100756.72;10471649;28;20124;-79
2022/06/18 21:29:46;;;;;;;15.90;9.25;;;;;;;21.15;75.46;100735.41;10426146;28;20379;-79
2022/06/18 21:40:06;;;;;;;15.82;10.45;;;;;;;21.19;76.15;100743.41;10468936;28;20037;-79
2022/06/18 21:45:10;;;;;;;15.37;8.97;;;;;;;21.48;75.06;100742.56;10420824;28;20041;-79
2022/06/18 21:50:13;;;;;;;18.17;8.50;;;;;;;21.40;75.21;100717.69;10477474;28;20511;-79
2022/06/18 21:55:14;;;;;;;15.40;8.23;;;;;;;21.27;75.34;100703.47;10463859;28;20044;-79
2022/06/18 22:00:25;;;;;;;18.38;7.78;;;;;;;21.08;76.44;100726.53;10465286;28;20032;-79
2022/06/18 22:05:26;;;;;;;13.88;8.52;;;;;;;21.00;76.94;100745.13;10472700;28;20049;-79
2022/06/18 22:10:28;;;;;;;11.80;7.75;;;;;;;20.98;77.54;100752.22;10439696;28;20048;-79
2022/06/18 22:20:48;;;;;;;11.98;7.75;;;;;;;21.39;75.86;100737.22;10400976;28;20037;-79
2022/06/18 22:25:49;;;;;;;9.75;7.47;;;;;;;21.34;76.03;100721.22;10382115;28;20124;-79
2022/06/18 22:30:50;;;;;;;12.27;7.30;;;;;;;21.10;76.58;100722.09;10401772;28;20112;-79
2022/06/18 22:35:50;;;;;;;10.50;6.68;;;;;;;20.85;77.93;100718.47;10407186;28;20129;-78
2022/06/18 22:40:51;;;;;;;14.68;7.38;;;;;;;20.77;78.01;100714.00;10440456;28;20048;-78
2022/06/18 22:45:51;;;;;;;12.70;5.17;;;;;;;20.56;75.26;100709.50;10457450;28;20060;-78
2022/06/18 22:50:52;;;;;;;5.15;3.35;;;;;;;20.33;74.11;100709.38;10447891;28;20173;-78
2022/06/18 22:55:58;;;;;;;7.57;3.63;;;;;;;20.16;74.34;100722.59;10435273;28;20056;-78
2022/06/18 23:00:58;;;;;;;6.78;3.28;;;;;;;19.98;74.80;100712.72;10423889;28;20060;-78
2022/06/18 23:06:01;;;;;;;8.88;3.45;;;;;;;19.84;74.33;100712.63;10450698;28;20116;-77
2022/06/18 23:11:46;;;;;;;8.50;3.17;;;;;;;19.66;74.29;100707.19;10438265;28;20040;-78
2022/06/18 23:16:22;;;;;;;12.73;4.47;;;;;;;19.50;74.79;100706.19;10468982;28;20041;-78
2022/06/18 23:21:23;;;;;;;7.68;2.70;;;;;;;19.33;72.82;100700.72;10455301;28;20040;-78
2022/06/18 23:26:23;;;;;;;7.93;3.88;;;;;;;19.14;73.40;100696.13;10445716;28;20115;-78
2022/06/18 23:31:24;;;;;;;10.13;3.33;;;;;;;18.91;73.76;100689.69;10430726;28;20059;-78
2022/06/18 23:36:25;;;;;;;6.88;2.70;;;;;;;18.85;74.22;100692.28;10445331;28;20052;-78
2022/06/18 23:41:25;;;;;;;12.68;3.65;;;;;;;18.69;74.21;100680.59;10443214;28;20041;-78
2022/06/18 23:46:26;;;;;;;6.13;2.88;;;;;;;18.54;74.33;100660.13;10441495;28;20056;-78
2022/06/18 23:51:26;;;;;;;4.40;2.38;;;;;;;18.41;73.93;100653.78;10447216;28;20104;-79
2022/06/18 23:56:27;;;;;;;5.20;3.75;;;;;;;18.26;73.67;100632.41;10458106;28;20511;-78
